sensor_id;sensor_type;location;lat;lon;timestamp;P1;durP1;ratioP1;P2;durP2;ratioP2
19030;SDS011;9648;51.130;13.978;2023-08-17T00:02:05;7.78;;;5.95;;
19030;SDS011;9648;51.130;13.978;2023-08-17T00:04:32;7.38;;;5.63;;
19030;SDS011;9648;51.130;13.978;2023-08-17T00:06:59;6.32;;;5.28;;
19030;SDS011;9648;51.130;13.978;2023-08-17T00:09:26;6.88;;;5.60;;
19030;SDS011;9648;51.130;13.978;2023-08-17T00:11:52;7.40;;;5.53;;
19030;SDS011;9648;51.130;13.978;2023-08-17T00:14:19;6.28;;;5.43;;
19030;SDS011;9648;51.130;13.978;2023-08-17T00:16:46;6.70;;;5.28;;
19030;SDS011;9648;51.130;13.978;2023-08-17T00:19:16;7.32;;;5.60;;
19030;SDS011;9648;51.130;13.978;2023-08-17T00:21:43;8.02;;;6.15;;
19030;SDS011;9648;51.130;13.978;2023-08-17T00:24:11;7.53;;;6.10;;
19030;SDS011;9648;51.130;13.978;2023-08-17T00:26:38;6.90;;;5.68;;
19030;SDS011;9648;51.130;13.978;2023-08-17T00:29:04;6.90;;;5.70;;
19030;SDS011;9648;51.130;13.978;2023-08-17T00:31:31;6.82;;;5.38;;
19030;SDS011;9648;51.130;13.978;2023-08-17T00:33:58;8.50;;;6.35;;
19030;SDS011;9648;51.130;13.978;2023-08-17T00:36:26;6.22;;;5.53;;
19030;SDS011;9648;51.130;13.978;2023-08-17T00:38:53;7.38;;;6.03;;
19030;SDS011;9648;51.130;13.978;2023-08-17T00:41:19;8.38;;;7.20;;
19030;SDS011;9648;51.130;13.978;2023-08-17T00:43:46;10.05;;;6.90;;
19030;SDS011;9648;51.130;13.978;2023-08-17T00:46:13;7.37;;;6.00;;
19030;SDS011;9648;51.130;13.978;2023-08-17T00:48:40;8.68;;;6.10;;
19030;SDS011;9648;51.130;13.978;2023-08-17T00:51:07;9.00;;;5.78;;
19030;SDS011;9648;51.130;13.978;2023-08-17T00:53:36;6.40;;;5.43;;
19030;SDS011;9648;51.130;13.978;2023-08-17T00:56:03;6.43;;;5.32;;
19030;SDS011;9648;51.130;13.978;2023-08-17T00:58:30;8.17;;;6.13;;
19030;SDS011;9648;51.130;13.978;2023-08-17T01:00:58;7.80;;;5.72;;
19030;SDS011;9648;51.130;13.978;2023-08-17T01:03:25;10.00;;;6.68;;
19030;SDS011;9648;51.130;13.978;2023-08-17T01:05:54;9.43;;;6.03;;
19030;SDS011;9648;51.130;13.978;2023-08-17T01:08:21;6.85;;;5.50;;
19030;SDS011;9648;51.130;13.978;2023-08-17T01:10:51;7.10;;;6.20;;
19030;SDS011;9648;51.130;13.978;2023-08-17T01:13:24;7.82;;;6.00;;
19030;SDS011;9648;51.130;13.978;2023-08-17T01:15:57;6.35;;;5.38;;
19030;SDS011;9648;51.130;13.978;2023-08-17T01:18:28;8.20;;;6.20;;
19030;SDS011;9648;51.130;13.978;2023-08-17T01:20:57;7.60;;;6.15;;
19030;SDS011;9648;51.130;13.978;2023-08-17T01:23:27;8.95;;;6.57;;
19030;SDS011;9648;51.130;13.978;2023-08-17T01:25:54;8.70;;;6.63;;
19030;SDS011;9648;51.130;13.978;2023-08-17T01:28:22;10.23;;;6.50;;
19030;SDS011;9648;51.130;13.978;2023-08-17T01:30:49;7.70;;;6.55;;
19030;SDS011;9648;51.130;13.978;2023-08-17T01:33:24;7.72;;;6.47;;
19030;SDS011;9648;51.130;13.978;2023-08-17T01:35:58;9.13;;;6.57;;
19030;SDS011;9648;51.130;13.978;2023-08-17T01:38:32;9.30;;;6.43;;
19030;SDS011;9648;51.130;13.978;2023-08-17T01:41:01;8.90;;;6.47;;
19030;SDS011;9648;51.130;13.978;2023-08-17T01:43:30;9.40;;;6.38;;
19030;SDS011;9648;51.130;13.978;2023-08-17T01:45:58;8.80;;;6.15;;
19030;SDS011;9648;51.130;13.978;2023-08-17T01:48:25;9.02;;;6.40;;
19030;SDS011;9648;51.130;13.978;2023-08-17T01:50:52;8.38;;;6.15;;
19030;SDS011;9648;51.130;13.978;2023-08-17T01:53:19;8.73;;;6.05;;
19030;SDS011;9648;51.130;13.978;2023-08-17T01:55:47;6.97;;;6.03;;
19030;SDS011;9648;51.130;13.978;2023-08-17T01:58:14;8.73;;;6.28;;
19030;SDS011;9648;51.130;13.978;2023-08-17T02:00:40;7.88;;;6.10;;
19030;SDS011;9648;51.130;13.978;2023-08-17T02:03:07;8.43;;;6.38;;
19030;SDS011;9648;51.130;13.978;2023-08-17T02:05:34;7.70;;;5.97;;
19030;SDS011;9648;51.130;13.978;2023-08-17T02:08:01;8.53;;;6.17;;
19030;SDS011;9648;51.130;13.978;2023-08-17T02:10:28;6.70;;;5.60;;
19030;SDS011;9648;51.130;13.978;2023-08-17T02:12:56;6.60;;;5.90;;
19030;SDS011;9648;51.130;13.978;2023-08-17T02:15:22;6.85;;;6.15;;
19030;SDS011;9648;51.130;13.978;2023-08-17T02:17:49;7.40;;;5.83;;
19030;SDS011;9648;51.130;13.978;2023-08-17T02:20:16;6.57;;;5.88;;
19030;SDS011;9648;51.130;13.978;2023-08-17T02:22:43;7.03;;;6.07;;
19030;SDS011;9648;51.130;13.978;2023-08-17T02:25:10;8.95;;;6.00;;
19030;SDS011;9648;51.130;13.978;2023-08-17T02:27:36;8.00;;;6.10;;
19030;SDS011;9648;51.130;13.978;2023-08-17T02:30:05;7.47;;;5.60;;
19030;SDS011;9648;51.130;13.978;2023-08-17T02:32:33;10.07;;;6.78;;
19030;SDS011;9648;51.130;13.978;2023-08-17T02:34:59;6.50;;;5.80;;
19030;SDS011;9648;51.130;13.978;2023-08-17T02:37:26;10.73;;;7.07;;
19030;SDS011;9648;51.130;13.978;2023-08-17T02:39:53;10.80;;;6.90;;
19030;SDS011;9648;51.130;13.978;2023-08-17T02:42:20;7.88;;;6.32;;
19030;SDS011;9648;51.130;13.978;2023-08-17T02:44:46;8.87;;;6.83;;
19030;SDS011;9648;51.130;13.978;2023-08-17T02:47:15;7.55;;;6.47;;
19030;SDS011;9648;51.130;13.978;2023-08-17T02:49:41;7.53;;;6.45;;
19030;SDS011;9648;51.130;13.978;2023-08-17T02:52:08;7.55;;;6.30;;
19030;SDS011;9648;51.130;13.978;2023-08-17T02:54:36;8.63;;;6.20;;
19030;SDS011;9648;51.130;13.978;2023-08-17T02:57:02;7.83;;;6.23;;
19030;SDS011;9648;51.130;13.978;2023-08-17T02:59:29;7.32;;;5.68;;
19030;SDS011;9648;51.130;13.978;2023-08-17T03:01:56;7.75;;;6.22;;
19030;SDS011;9648;51.130;13.978;2023-08-17T03:04:24;6.78;;;5.97;;
19030;SDS011;9648;51.130;13.978;2023-08-17T03:06:51;9.00;;;6.50;;
19030;SDS011;9648;51.130;13.978;2023-08-17T03:09:18;9.60;;;7.07;;
19030;SDS011;9648;51.130;13.978;2023-08-17T03:11:44;9.02;;;6.60;;
19030;SDS011;9648;51.130;13.978;2023-08-17T03:14:11;7.13;;;5.68;;
19030;SDS011;9648;51.130;13.978;2023-08-17T03:16:38;7.18;;;6.07;;
19030;SDS011;9648;51.130;13.978;2023-08-17T03:19:05;9.27;;;6.77;;
19030;SDS011;9648;51.130;13.978;2023-08-17T03:21:37;9.13;;;6.68;;
19030;SDS011;9648;51.130;13.978;2023-08-17T03:24:04;8.32;;;6.93;;
19030;SDS011;9648;51.130;13.978;2023-08-17T03:26:32;9.50;;;6.60;;
19030;SDS011;9648;51.130;13.978;2023-08-17T03:28:59;9.13;;;6.73;;
19030;SDS011;9648;51.130;13.978;2023-08-17T03:31:26;7.82;;;6.43;;
19030;SDS011;9648;51.130;13.978;2023-08-17T03:33:52;9.23;;;6.20;;
19030;SDS011;9648;51.130;13.978;2023-08-17T03:36:20;8.40;;;6.20;;
19030;SDS011;9648;51.130;13.978;2023-08-17T03:38:48;7.60;;;5.60;;
19030;SDS011;9648;51.130;13.978;2023-08-17T03:41:15;8.35;;;6.35;;
19030;SDS011;9648;51.130;13.978;2023-08-17T03:43:42;7.97;;;6.03;;
19030;SDS011;9648;51.130;13.978;2023-08-17T03:46:08;7.33;;;6.23;;
19030;SDS011;9648;51.130;13.978;2023-08-17T03:48:35;8.43;;;5.95;;
19030;SDS011;9648;51.130;13.978;2023-08-17T03:51:02;7.60;;;5.97;;
19030;SDS011;9648;51.130;13.978;2023-08-17T03:53:29;7.45;;;5.60;;
19030;SDS011;9648;51.130;13.978;2023-08-17T03:55:57;6.20;;;5.20;;
19030;SDS011;9648;51.130;13.978;2023-08-17T03:58:24;6.82;;;5.68;;
19030;SDS011;9648;51.130;13.978;2023-08-17T04:00:52;9.18;;;6.00;;
19030;SDS011;9648;51.130;13.978;2023-08-17T04:03:19;6.82;;;5.72;;
19030;SDS011;9648;51.130;13.978;2023-08-17T04:05:46;7.22;;;5.93;;
19030;SDS011;9648;51.130;13.978;2023-08-17T04:08:13;6.05;;;5.45;;
19030;SDS011;9648;51.130;13.978;2023-08-17T04:10:39;6.07;;;5.35;;
19030;SDS011;9648;51.130;13.978;2023-08-17T04:13:08;9.35;;;6.20;;
19030;SDS011;9648;51.130;13.978;2023-08-17T04:15:34;7.90;;;5.90;;
19030;SDS011;9648;51.130;13.978;2023-08-17T04:18:01;7.13;;;5.75;;
19030;SDS011;9648;51.130;13.978;2023-08-17T04:20:28;7.20;;;5.40;;
19030;SDS011;9648;51.130;13.978;2023-08-17T04:22:55;6.68;;;5.47;;
19030;SDS011;9648;51.130;13.978;2023-08-17T04:25:21;7.85;;;5.68;;
19030;SDS011;9648;51.130;13.978;2023-08-17T04:27:49;6.97;;;5.80;;
19030;SDS011;9648;51.130;13.978;2023-08-17T04:30:17;6.88;;;5.45;;
19030;SDS011;9648;51.130;13.978;2023-08-17T04:32:44;6.05;;;5.30;;
19030;SDS011;9648;51.130;13.978;2023-08-17T04:35:15;6.88;;;5.82;;
19030;SDS011;9648;51.130;13.978;2023-08-17T04:37:42;7.60;;;5.67;;
19030;SDS011;9648;51.130;13.978;2023-08-17T04:40:09;7.05;;;5.32;;
19030;SDS011;9648;51.130;13.978;2023-08-17T04:42:36;6.20;;;5.45;;
19030;SDS011;9648;51.130;13.978;2023-08-17T04:45:03;6.10;;;5.20;;
19030;SDS011;9648;51.130;13.978;2023-08-17T04:47:32;7.70;;;5.78;;
19030;SDS011;9648;51.130;13.978;2023-08-17T04:49:58;5.95;;;5.30;;
19030;SDS011;9648;51.130;13.978;2023-08-17T04:52:26;7.20;;;5.53;;
19030;SDS011;9648;51.130;13.978;2023-08-17T04:54:52;7.38;;;5.78;;
19030;SDS011;9648;51.130;13.978;2023-08-17T04:57:19;8.40;;;5.95;;
19030;SDS011;9648;51.130;13.978;2023-08-17T04:59:46;5.95;;;5.05;;
19030;SDS011;9648;51.130;13.978;2023-08-17T05:02:13;6.88;;;5.40;;
19030;SDS011;9648;51.130;13.978;2023-08-17T05:04:41;7.73;;;5.50;;
19030;SDS011;9648;51.130;13.978;2023-08-17T05:07:07;6.32;;;5.13;;
19030;SDS011;9648;51.130;13.978;2023-08-17T05:09:34;6.72;;;5.10;;
19030;SDS011;9648;51.130;13.978;2023-08-17T05:12:01;8.60;;;5.30;;
19030;SDS011;9648;51.130;13.978;2023-08-17T05:14:28;7.22;;;5.35;;
19030;SDS011;9648;51.130;13.978;2023-08-17T05:16:55;6.95;;;5.30;;
19030;SDS011;9648;51.130;13.978;2023-08-17T05:19:22;6.85;;;5.60;;
19030;SDS011;9648;51.130;13.978;2023-08-17T05:21:50;8.33;;;5.87;;
19030;SDS011;9648;51.130;13.978;2023-08-17T05:24:18;6.03;;;5.28;;
19030;SDS011;9648;51.130;13.978;2023-08-17T05:26:46;6.33;;;4.83;;
19030;SDS011;9648;51.130;13.978;2023-08-17T05:29:13;6.55;;;5.40;;
19030;SDS011;9648;51.130;13.978;2023-08-17T05:31:39;6.28;;;4.97;;
19030;SDS011;9648;51.130;13.978;2023-08-17T05:34:06;6.30;;;4.80;;
19030;SDS011;9648;51.130;13.978;2023-08-17T05:36:33;7.22;;;5.53;;
19030;SDS011;9648;51.130;13.978;2023-08-17T05:39:01;6.30;;;5.15;;
19030;SDS011;9648;51.130;13.978;2023-08-17T05:41:28;6.47;;;5.15;;
19030;SDS011;9648;51.130;13.978;2023-08-17T05:43:55;7.50;;;5.47;;
19030;SDS011;9648;51.130;13.978;2023-08-17T05:46:22;9.25;;;5.80;;
19030;SDS011;9648;51.130;13.978;2023-08-17T05:48:49;7.05;;;5.57;;
19030;SDS011;9648;51.130;13.978;2023-08-17T05:51:15;7.00;;;5.40;;
19030;SDS011;9648;51.130;13.978;2023-08-17T05:53:42;6.32;;;5.00;;
19030;SDS011;9648;51.130;13.978;2023-08-17T05:56:10;8.18;;;5.20;;
19030;SDS011;9648;51.130;13.978;2023-08-17T05:58:37;7.63;;;5.20;;
19030;SDS011;9648;51.130;13.978;2023-08-17T06:01:04;7.23;;;5.20;;
19030;SDS011;9648;51.130;13.978;2023-08-17T06:03:32;6.07;;;5.00;;
19030;SDS011;9648;51.130;13.978;2023-08-17T06:05:59;6.93;;;5.03;;
19030;SDS011;9648;51.130;13.978;2023-08-17T06:08:26;6.30;;;5.00;;
19030;SDS011;9648;51.130;13.978;2023-08-17T06:10:53;5.07;;;4.50;;
19030;SDS011;9648;51.130;13.978;2023-08-17T06:13:21;6.93;;;4.88;;
19030;SDS011;9648;51.130;13.978;2023-08-17T06:15:48;5.93;;;4.53;;
19030;SDS011;9648;51.130;13.978;2023-08-17T06:18:15;6.57;;;4.50;;
19030;SDS011;9648;51.130;13.978;2023-08-17T06:20:42;5.60;;;4.57;;
19030;SDS011;9648;51.130;13.978;2023-08-17T06:23:11;6.40;;;4.97;;
19030;SDS011;9648;51.130;13.978;2023-08-17T06:25:38;7.25;;;5.10;;
19030;SDS011;9648;51.130;13.978;2023-08-17T06:28:05;6.10;;;4.80;;
19030;SDS011;9648;51.130;13.978;2023-08-17T06:30:34;5.72;;;4.70;;
19030;SDS011;9648;51.130;13.978;2023-08-17T06:33:00;5.90;;;5.13;;
19030;SDS011;9648;51.130;13.978;2023-08-17T06:35:27;6.10;;;4.97;;
19030;SDS011;9648;51.130;13.978;2023-08-17T06:37:54;5.10;;;4.60;;
19030;SDS011;9648;51.130;13.978;2023-08-17T06:40:22;5.78;;;4.80;;
19030;SDS011;9648;51.130;13.978;2023-08-17T06:42:49;5.72;;;4.70;;
19030;SDS011;9648;51.130;13.978;2023-08-17T06:45:17;6.57;;;4.75;;
19030;SDS011;9648;51.130;13.978;2023-08-17T06:47:45;6.60;;;4.70;;
19030;SDS011;9648;51.130;13.978;2023-08-17T06:50:13;5.72;;;4.93;;
19030;SDS011;9648;51.130;13.978;2023-08-17T06:52:40;5.07;;;4.40;;
19030;SDS011;9648;51.130;13.978;2023-08-17T06:55:07;6.95;;;5.05;;
19030;SDS011;9648;51.130;13.978;2023-08-17T06:57:35;6.05;;;4.88;;
19030;SDS011;9648;51.130;13.978;2023-08-17T07:00:02;6.53;;;4.70;;
19030;SDS011;9648;51.130;13.978;2023-08-17T07:02:30;5.75;;;4.40;;
19030;SDS011;9648;51.130;13.978;2023-08-17T07:04:58;7.47;;;4.77;;
19030;SDS011;9648;51.130;13.978;2023-08-17T07:07:25;5.10;;;4.40;;
19030;SDS011;9648;51.130;13.978;2023-08-17T07:09:52;6.00;;;4.60;;
19030;SDS011;9648;51.130;13.978;2023-08-17T07:12:18;5.25;;;4.55;;
19030;SDS011;9648;51.130;13.978;2023-08-17T07:14:45;7.35;;;5.07;;
19030;SDS011;9648;51.130;13.978;2023-08-17T07:17:12;6.32;;;5.10;;
19030;SDS011;9648;51.130;13.978;2023-08-17T07:19:39;7.32;;;5.20;;
19030;SDS011;9648;51.130;13.978;2023-08-17T07:22:07;6.63;;;5.32;;
19030;SDS011;9648;51.130;13.978;2023-08-17T07:24:34;7.30;;;5.25;;
19030;SDS011;9648;51.130;13.978;2023-08-17T07:27:01;6.40;;;5.00;;
19030;SDS011;9648;51.130;13.978;2023-08-17T07:29:27;6.73;;;5.13;;
19030;SDS011;9648;51.130;13.978;2023-08-17T07:31:54;6.03;;;4.90;;
19030;SDS011;9648;51.130;13.978;2023-08-17T07:34:24;7.93;;;5.30;;
19030;SDS011;9648;51.130;13.978;2023-08-17T07:36:50;7.22;;;5.32;;
19030;SDS011;9648;51.130;13.978;2023-08-17T07:39:19;5.75;;;4.63;;
19030;SDS011;9648;51.130;13.978;2023-08-17T07:41:46;5.80;;;4.72;;
19030;SDS011;9648;51.130;13.978;2023-08-17T07:44:12;5.17;;;4.67;;
19030;SDS011;9648;51.130;13.978;2023-08-17T07:46:39;6.95;;;5.20;;
19030;SDS011;9648;51.130;13.978;2023-08-17T07:49:06;5.90;;;4.60;;
19030;SDS011;9648;51.130;13.978;2023-08-17T07:51:33;6.22;;;4.70;;
19030;SDS011;9648;51.130;13.978;2023-08-17T07:54:00;5.57;;;4.75;;
19030;SDS011;9648;51.130;13.978;2023-08-17T07:56:28;5.63;;;4.90;;
19030;SDS011;9648;51.130;13.978;2023-08-17T07:58:55;6.35;;;5.20;;
19030;SDS011;9648;51.130;13.978;2023-08-17T08:01:22;7.45;;;4.97;;
19030;SDS011;9648;51.130;13.978;2023-08-17T08:03:49;6.27;;;4.80;;
19030;SDS011;9648;51.130;13.978;2023-08-17T08:06:16;5.90;;;5.30;;
19030;SDS011;9648;51.130;13.978;2023-08-17T08:08:45;6.00;;;5.33;;
19030;SDS011;9648;51.130;13.978;2023-08-17T08:11:12;6.70;;;5.32;;
19030;SDS011;9648;51.130;13.978;2023-08-17T08:13:40;7.75;;;5.82;;
19030;SDS011;9648;51.130;13.978;2023-08-17T08:16:07;7.10;;;5.30;;
19030;SDS011;9648;51.130;13.978;2023-08-17T08:18:34;6.88;;;4.93;;
19030;SDS011;9648;51.130;13.978;2023-08-17T08:21:00;5.13;;;4.60;;
19030;SDS011;9648;51.130;13.978;2023-08-17T08:23:27;6.93;;;5.10;;
19030;SDS011;9648;51.130;13.978;2023-08-17T08:25:54;6.90;;;5.85;;
19030;SDS011;9648;51.130;13.978;2023-08-17T08:28:23;5.60;;;5.00;;
19030;SDS011;9648;51.130;13.978;2023-08-17T08:30:51;8.00;;;5.43;;
19030;SDS011;9648;51.130;13.978;2023-08-17T08:33:18;5.72;;;5.05;;
19030;SDS011;9648;51.130;13.978;2023-08-17T08:35:45;6.65;;;5.75;;
19030;SDS011;9648;51.130;13.978;2023-08-17T08:38:13;7.15;;;5.63;;
19030;SDS011;9648;51.130;13.978;2023-08-17T08:40:41;7.45;;;5.40;;
19030;SDS011;9648;51.130;13.978;2023-08-17T08:43:10;7.00;;;5.50;;
19030;SDS011;9648;51.130;13.978;2023-08-17T08:45:36;6.88;;;5.50;;
19030;SDS011;9648;51.130;13.978;2023-08-17T08:48:07;5.80;;;5.25;;
19030;SDS011;9648;51.130;13.978;2023-08-17T08:50:35;6.75;;;5.95;;
19030;SDS011;9648;51.130;13.978;2023-08-17T08:53:04;6.15;;;5.47;;
19030;SDS011;9648;51.130;13.978;2023-08-17T08:55:37;7.45;;;5.88;;
19030;SDS011;9648;51.130;13.978;2023-08-17T08:58:07;9.70;;;5.70;;
19030;SDS011;9648;51.130;13.978;2023-08-17T09:00:34;6.97;;;5.60;;
19030;SDS011;9648;51.130;13.978;2023-08-17T09:03:01;7.70;;;5.93;;
19030;SDS011;9648;51.130;13.978;2023-08-17T09:05:30;8.55;;;5.93;;
19030;SDS011;9648;51.130;13.978;2023-08-17T09:07:59;6.80;;;5.97;;
19030;SDS011;9648;51.130;13.978;2023-08-17T09:10:28;7.22;;;5.90;;
19030;SDS011;9648;51.130;13.978;2023-08-17T09:12:54;6.00;;;5.32;;
19030;SDS011;9648;51.130;13.978;2023-08-17T09:15:21;6.20;;;5.60;;
19030;SDS011;9648;51.130;13.978;2023-08-17T09:17:48;9.65;;;5.80;;
19030;SDS011;9648;51.130;13.978;2023-08-17T09:23:09;6.78;;;5.78;;
19030;SDS011;9648;51.130;13.978;2023-08-17T09:25:38;6.47;;;5.80;;
19030;SDS011;9648;51.130;13.978;2023-08-17T09:28:09;6.77;;;6.00;;
19030;SDS011;9648;51.130;13.978;2023-08-17T09:30:51;7.97;;;6.28;;
19030;SDS011;9648;51.130;13.978;2023-08-17T09:33:18;7.00;;;5.65;;
19030;SDS011;9648;51.130;13.978;2023-08-17T09:35:48;7.83;;;6.43;;
19030;SDS011;9648;51.130;13.978;2023-08-17T09:38:15;9.57;;;6.50;;
19030;SDS011;9648;51.130;13.978;2023-08-17T09:40:42;8.82;;;6.20;;
19030;SDS011;9648;51.130;13.978;2023-08-17T09:43:09;8.25;;;6.72;;
19030;SDS011;9648;51.130;13.978;2023-08-17T09:45:36;8.98;;;6.78;;
19030;SDS011;9648;51.130;13.978;2023-08-17T09:48:04;9.13;;;6.25;;
19030;SDS011;9648;51.130;13.978;2023-08-17T09:50:31;9.50;;;6.68;;
19030;SDS011;9648;51.130;13.978;2023-08-17T09:52:59;11.33;;;7.40;;
19030;SDS011;9648;51.130;13.978;2023-08-17T09:55:27;8.60;;;6.65;;
19030;SDS011;9648;51.130;13.978;2023-08-17T09:57:56;8.80;;;6.72;;
19030;SDS011;9648;51.130;13.978;2023-08-17T10:00:23;6.80;;;6.10;;
19030;SDS011;9648;51.130;13.978;2023-08-17T10:02:52;11.18;;;7.40;;
19030;SDS011;9648;51.130;13.978;2023-08-17T10:05:20;9.85;;;6.60;;
19030;SDS011;9648;51.130;13.978;2023-08-17T10:07:47;8.43;;;6.37;;
19030;SDS011;9648;51.130;13.978;2023-08-17T10:10:21;8.25;;;6.70;;
19030;SDS011;9648;51.130;13.978;2023-08-17T10:12:53;7.22;;;6.10;;
19030;SDS011;9648;51.130;13.978;2023-08-17T10:15:25;8.00;;;5.55;;
19030;SDS011;9648;51.130;13.978;2023-08-17T10:17:58;14.18;;;10.48;;
19030;SDS011;9648;51.130;13.978;2023-08-17T10:20:29;7.00;;;6.30;;
19030;SDS011;9648;51.130;13.978;2023-08-17T10:22:59;10.25;;;6.50;;
19030;SDS011;9648;51.130;13.978;2023-08-17T10:25:33;7.65;;;6.13;;
19030;SDS011;9648;51.130;13.978;2023-08-17T10:28:01;8.13;;;6.10;;
19030;SDS011;9648;51.130;13.978;2023-08-17T10:30:29;10.25;;;6.50;;
19030;SDS011;9648;51.130;13.978;2023-08-17T10:32:56;6.45;;;5.85;;
19030;SDS011;9648;51.130;13.978;2023-08-17T10:35:23;7.63;;;6.00;;
19030;SDS011;9648;51.130;13.978;2023-08-17T10:37:51;8.30;;;6.57;;
19030;SDS011;9648;51.130;13.978;2023-08-17T10:40:24;7.05;;;5.78;;
19030;SDS011;9648;51.130;13.978;2023-08-17T10:42:54;7.47;;;6.20;;
19030;SDS011;9648;51.130;13.978;2023-08-17T10:45:25;7.57;;;6.32;;
19030;SDS011;9648;51.130;13.978;2023-08-17T10:47:59;7.82;;;5.90;;
19030;SDS011;9648;51.130;13.978;2023-08-17T10:50:58;8.23;;;6.20;;
19030;SDS011;9648;51.130;13.978;2023-08-17T10:53:33;7.80;;;5.60;;
19030;SDS011;9648;51.130;13.978;2023-08-17T10:56:04;7.03;;;6.00;;
19030;SDS011;9648;51.130;13.978;2023-08-17T10:58:35;7.55;;;6.22;;
19030;SDS011;9648;51.130;13.978;2023-08-17T11:01:02;8.90;;;6.77;;
19030;SDS011;9648;51.130;13.978;2023-08-17T11:03:29;11.40;;;6.30;;
19030;SDS011;9648;51.130;13.978;2023-08-17T11:05:56;8.03;;;6.43;;
19030;SDS011;9648;51.130;13.978;2023-08-17T11:08:28;8.55;;;6.32;;
19030;SDS011;9648;51.130;13.978;2023-08-17T11:10:58;9.32;;;6.75;;
19030;SDS011;9648;51.130;13.978;2023-08-17T11:13:28;8.18;;;6.20;;
19030;SDS011;9648;51.130;13.978;2023-08-17T11:15:57;9.17;;;6.80;;
19030;SDS011;9648;51.130;13.978;2023-08-17T11:18:25;9.33;;;6.70;;
19030;SDS011;9648;51.130;13.978;2023-08-17T11:20:52;7.90;;;6.10;;
19030;SDS011;9648;51.130;13.978;2023-08-17T11:23:19;7.80;;;6.47;;
19030;SDS011;9648;51.130;13.978;2023-08-17T11:25:47;8.95;;;6.70;;
19030;SDS011;9648;51.130;13.978;2023-08-17T11:28:16;8.40;;;6.82;;
19030;SDS011;9648;51.130;13.978;2023-08-17T11:30:42;7.40;;;6.38;;
19030;SDS011;9648;51.130;13.978;2023-08-17T11:33:11;8.07;;;6.43;;
19030;SDS011;9648;51.130;13.978;2023-08-17T11:35:38;8.30;;;6.60;;
19030;SDS011;9648;51.130;13.978;2023-08-17T11:38:05;7.72;;;6.45;;
19030;SDS011;9648;51.130;13.978;2023-08-17T11:40:33;8.10;;;6.25;;
19030;SDS011;9648;51.130;13.978;2023-08-17T11:43:00;8.20;;;6.22;;
19030;SDS011;9648;51.130;13.978;2023-08-17T11:45:27;7.57;;;6.35;;
19030;SDS011;9648;51.130;13.978;2023-08-17T11:47:53;7.57;;;6.38;;
19030;SDS011;9648;51.130;13.978;2023-08-17T11:50:24;11.07;;;6.50;;
19030;SDS011;9648;51.130;13.978;2023-08-17T11:52:51;7.47;;;6.68;;
19030;SDS011;9648;51.130;13.978;2023-08-17T11:55:18;9.27;;;6.22;;
19030;SDS011;9648;51.130;13.978;2023-08-17T11:57:45;8.15;;;6.50;;
19030;SDS011;9648;51.130;13.978;2023-08-17T12:00:16;7.27;;;6.13;;
19030;SDS011;9648;51.130;13.978;2023-08-17T12:02:49;7.43;;;5.50;;
19030;SDS011;9648;51.130;13.978;2023-08-17T12:05:20;7.90;;;5.90;;
19030;SDS011;9648;51.130;13.978;2023-08-17T12:07:50;8.50;;;6.03;;
19030;SDS011;9648;51.130;13.978;2023-08-17T12:10:19;6.95;;;5.55;;
19030;SDS011;9648;51.130;13.978;2023-08-17T12:12:47;7.80;;;5.97;;
19030;SDS011;9648;51.130;13.978;2023-08-17T12:15:15;6.50;;;5.68;;
19030;SDS011;9648;51.130;13.978;2023-08-17T12:17:44;8.55;;;6.10;;
19030;SDS011;9648;51.130;13.978;2023-08-17T12:20:15;8.87;;;6.10;;
19030;SDS011;9648;51.130;13.978;2023-08-17T12:22:44;9.70;;;6.20;;
19030;SDS011;9648;51.130;13.978;2023-08-17T12:25:11;7.05;;;6.35;;
19030;SDS011;9648;51.130;13.978;2023-08-17T12:27:38;6.47;;;5.80;;
19030;SDS011;9648;51.130;13.978;2023-08-17T12:30:09;6.55;;;5.80;;
19030;SDS011;9648;51.130;13.978;2023-08-17T12:32:38;8.50;;;6.38;;
19030;SDS011;9648;51.130;13.978;2023-08-17T12:35:05;13.52;;;6.30;;
19030;SDS011;9648;51.130;13.978;2023-08-17T12:37:33;8.02;;;6.05;;
19030;SDS011;9648;51.130;13.978;2023-08-17T12:40:01;7.43;;;6.03;;
19030;SDS011;9648;51.130;13.978;2023-08-17T12:42:28;8.80;;;6.27;;
19030;SDS011;9648;51.130;13.978;2023-08-17T12:44:55;7.50;;;6.17;;
19030;SDS011;9648;51.130;13.978;2023-08-17T12:47:22;12.20;;;6.70;;
19030;SDS011;9648;51.130;13.978;2023-08-17T12:49:49;7.85;;;5.97;;
19030;SDS011;9648;51.130;13.978;2023-08-17T12:52:15;11.85;;;6.07;;
19030;SDS011;9648;51.130;13.978;2023-08-17T12:54:42;8.40;;;6.05;;
19030;SDS011;9648;51.130;13.978;2023-08-17T12:57:12;8.52;;;5.88;;
19030;SDS011;9648;51.130;13.978;2023-08-17T12:59:39;8.35;;;6.28;;
19030;SDS011;9648;51.130;13.978;2023-08-17T13:02:06;10.32;;;6.25;;
19030;SDS011;9648;51.130;13.978;2023-08-17T13:04:32;8.65;;;6.13;;
19030;SDS011;9648;51.130;13.978;2023-08-17T13:06:59;6.55;;;5.80;;
19030;SDS011;9648;51.130;13.978;2023-08-17T13:09:26;7.38;;;6.03;;
19030;SDS011;9648;51.130;13.978;2023-08-17T13:11:53;7.40;;;5.50;;
19030;SDS011;9648;51.130;13.978;2023-08-17T13:14:21;7.43;;;5.70;;
19030;SDS011;9648;51.130;13.978;2023-08-17T13:16:48;7.35;;;6.07;;
19030;SDS011;9648;51.130;13.978;2023-08-17T13:19:15;6.95;;;5.97;;
19030;SDS011;9648;51.130;13.978;2023-08-17T13:21:42;7.32;;;6.20;;
19030;SDS011;9648;51.130;13.978;2023-08-17T13:24:09;8.43;;;6.10;;
19030;SDS011;9648;51.130;13.978;2023-08-17T13:26:35;8.20;;;5.97;;
19030;SDS011;9648;51.130;13.978;2023-08-17T13:29:02;11.68;;;5.95;;
19030;SDS011;9648;51.130;13.978;2023-08-17T13:31:31;10.50;;;6.53;;
19030;SDS011;9648;51.130;13.978;2023-08-17T13:33:58;8.50;;;5.93;;
19030;SDS011;9648;51.130;13.978;2023-08-17T13:36:24;8.45;;;6.70;;
19030;SDS011;9648;51.130;13.978;2023-08-17T13:38:51;9.40;;;6.22;;
19030;SDS011;9648;51.130;13.978;2023-08-17T13:41:18;8.23;;;5.90;;
19030;SDS011;9648;51.130;13.978;2023-08-17T13:43:45;6.80;;;6.10;;
19030;SDS011;9648;51.130;13.978;2023-08-17T13:46:12;7.45;;;6.10;;
19030;SDS011;9648;51.130;13.978;2023-08-17T13:48:40;6.63;;;5.93;;
19030;SDS011;9648;51.130;13.978;2023-08-17T13:51:07;9.63;;;6.00;;
19030;SDS011;9648;51.130;13.978;2023-08-17T13:53:34;8.23;;;6.07;;
19030;SDS011;9648;51.130;13.978;2023-08-17T13:56:00;9.35;;;6.00;;
19030;SDS011;9648;51.130;13.978;2023-08-17T13:58:27;7.80;;;5.63;;
19030;SDS011;9648;51.130;13.978;2023-08-17T14:00:54;6.60;;;5.78;;
19030;SDS011;9648;51.130;13.978;2023-08-17T14:03:21;7.75;;;5.82;;
19030;SDS011;9648;51.130;13.978;2023-08-17T14:05:50;9.98;;;6.30;;
19030;SDS011;9648;51.130;13.978;2023-08-17T14:08:16;8.90;;;6.37;;
19030;SDS011;9648;51.130;13.978;2023-08-17T14:10:43;7.80;;;6.05;;
19030;SDS011;9648;51.130;13.978;2023-08-17T14:13:10;8.65;;;6.25;;
19030;SDS011;9648;51.130;13.978;2023-08-17T14:15:37;8.35;;;6.18;;
19030;SDS011;9648;51.130;13.978;2023-08-17T14:18:04;9.07;;;6.63;;
19030;SDS011;9648;51.130;13.978;2023-08-17T14:20:31;6.68;;;5.72;;
19030;SDS011;9648;51.130;13.978;2023-08-17T14:22:59;7.60;;;5.97;;
19030;SDS011;9648;51.130;13.978;2023-08-17T14:25:26;9.52;;;6.45;;
19030;SDS011;9648;51.130;13.978;2023-08-17T14:27:53;8.23;;;6.17;;
19030;SDS011;9648;51.130;13.978;2023-08-17T14:30:20;9.85;;;6.10;;
19030;SDS011;9648;51.130;13.978;2023-08-17T14:32:49;9.23;;;5.90;;
19030;SDS011;9648;51.130;13.978;2023-08-17T14:35:16;7.35;;;6.00;;
19030;SDS011;9648;51.130;13.978;2023-08-17T14:37:43;8.45;;;6.10;;
19030;SDS011;9648;51.130;13.978;2023-08-17T14:40:11;12.70;;;6.68;;
19030;SDS011;9648;51.130;13.978;2023-08-17T14:42:38;15.65;;;6.30;;
19030;SDS011;9648;51.130;13.978;2023-08-17T14:45:05;14.30;;;6.47;;
19030;SDS011;9648;51.130;13.978;2023-08-17T14:47:33;11.45;;;5.85;;
19030;SDS011;9648;51.130;13.978;2023-08-17T14:50:00;8.40;;;6.25;;
19030;SDS011;9648;51.130;13.978;2023-08-17T14:52:26;11.27;;;6.70;;
19030;SDS011;9648;51.130;13.978;2023-08-17T14:54:54;6.95;;;5.97;;